sensor_id;sensor_type;location;lat;lon;timestamp;temperature;humidity
2407;DHT22;37709;53.480;9.688;2023-08-08T00:00:26;11.70;99.90
2407;DHT22;37709;53.480;9.688;2023-08-08T00:02:53;11.70;99.90
2407;DHT22;37709;53.480;9.688;2023-08-08T00:05:20;11.80;99.90
2407;DHT22;37709;53.480;9.688;2023-08-08T00:07:48;12.00;99.90
2407;DHT22;37709;53.480;9.688;2023-08-08T00:10:15;12.20;99.90
2407;DHT22;37709;53.480;9.688;2023-08-08T00:12:43;12.20;99.90
2407;DHT22;37709;53.480;9.688;2023-08-08T00:15:11;12.30;99.90
2407;DHT22;37709;53.480;9.688;2023-08-08T00:17:38;12.30;99.90
2407;DHT22;37709;53.480;9.688;2023-08-08T00:20:06;12.30;99.90
2407;DHT22;37709;53.480;9.688;2023-08-08T00:22:34;12.20;99.90
2407;DHT22;37709;53.480;9.688;2023-08-08T00:25:02;12.20;99.90
2407;DHT22;37709;53.480;9.688;2023-08-08T00:27:29;12.10;99.90
2407;DHT22;37709;53.480;9.688;2023-08-08T00:29:57;11.90;99.90
2407;DHT22;37709;53.480;9.688;2023-08-08T00:32:24;11.70;99.90
2407;DHT22;37709;53.480;9.688;2023-08-08T00:34:52;11.60;99.90
2407;DHT22;37709;53.480;9.688;2023-08-08T00:37:19;11.60;99.90
2407;DHT22;37709;53.480;9.688;2023-08-08T00:39:46;11.60;99.90
2407;DHT22;37709;53.480;9.688;2023-08-08T00:42:14;11.50;99.90
2407;DHT22;37709;53.480;9.688;2023-08-08T00:44:42;11.60;99.90
2407;DHT22;37709;53.480;9.688;2023-08-08T00:47:10;11.60;99.90
2407;DHT22;37709;53.480;9.688;2023-08-08T00:49:38;11.70;99.90
2407;DHT22;37709;53.480;9.688;2023-08-08T00:52:06;11.80;99.90
2407;DHT22;37709;53.480;9.688;2023-08-08T00:54:34;11.80;99.90
2407;DHT22;37709;53.480;9.688;2023-08-08T00:57:01;11.80;99.90
2407;DHT22;37709;53.480;9.688;2023-08-08T00:59:29;11.80;99.90
2407;DHT22;37709;53.480;9.688;2023-08-08T01:01:57;11.80;99.90
2407;DHT22;37709;53.480;9.688;2023-08-08T01:04:26;11.70;99.90
2407;DHT22;37709;53.480;9.688;2023-08-08T01:07:01;11.70;99.90
2407;DHT22;37709;53.480;9.688;2023-08-08T01:09:36;11.70;99.90
2407;DHT22;37709;53.480;9.688;2023-08-08T01:12:06;11.60;99.90
2407;DHT22;37709;53.480;9.688;2023-08-08T01:14:35;11.40;99.90
2407;DHT22;37709;53.480;9.688;2023-08-08T01:17:04;11.40;99.90
2407;DHT22;37709;53.480;9.688;2023-08-08T01:19:33;11.50;99.90
2407;DHT22;37709;53.480;9.688;2023-08-08T01:22:09;11.50;99.90
2407;DHT22;37709;53.480;9.688;2023-08-08T01:24:38;11.60;99.90
2407;DHT22;37709;53.480;9.688;2023-08-08T01:27:06;11.70;99.90
2407;DHT22;37709;53.480;9.688;2023-08-08T01:29:34;11.70;99.90
2407;DHT22;37709;53.480;9.688;2023-08-08T01:32:02;11.70;99.90
2407;DHT22;37709;53.480;9.688;2023-08-08T01:34:29;11.60;99.90
2407;DHT22;37709;53.480;9.688;2023-08-08T01:37:02;11.50;99.90
2407;DHT22;37709;53.480;9.688;2023-08-08T01:39:32;11.40;99.90
2407;DHT22;37709;53.480;9.688;2023-08-08T01:42:00;11.30;99.90
2407;DHT22;37709;53.480;9.688;2023-08-08T01:44:29;11.20;99.90
2407;DHT22;37709;53.480;9.688;2023-08-08T01:46:57;11.20;99.90
2407;DHT22;37709;53.480;9.688;2023-08-08T01:49:24;11.20;99.90
2407;DHT22;37709;53.480;9.688;2023-08-08T01:51:52;11.20;99.90
2407;DHT22;37709;53.480;9.688;2023-08-08T01:54:20;11.30;99.90
2407;DHT22;37709;53.480;9.688;2023-08-08T01:56:47;11.40;99.90
2407;DHT22;37709;53.480;9.688;2023-08-08T01:59:15;11.60;99.90
2407;DHT22;37709;53.480;9.688;2023-08-08T02:01:43;11.60;99.90
2407;DHT22;37709;53.480;9.688;2023-08-08T02:04:10;11.70;99.90
2407;DHT22;37709;53.480;9.688;2023-08-08T02:06:40;11.70;99.90
2407;DHT22;37709;53.480;9.688;2023-08-08T02:09:07;11.60;99.90
2407;DHT22;37709;53.480;9.688;2023-08-08T02:11:35;11.60;99.90
2407;DHT22;37709;53.480;9.688;2023-08-08T02:14:03;11.50;99.90
2407;DHT22;37709;53.480;9.688;2023-08-08T02:16:33;11.50;99.90
2407;DHT22;37709;53.480;9.688;2023-08-08T02:19:09;11.40;99.90
2407;DHT22;37709;53.480;9.688;2023-08-08T02:21:36;11.30;99.90
2407;DHT22;37709;53.480;9.688;2023-08-08T02:24:04;11.20;99.90
2407;DHT22;37709;53.480;9.688;2023-08-08T02:26:31;11.20;99.90
2407;DHT22;37709;53.480;9.688;2023-08-08T02:29:00;11.20;99.90
2407;DHT22;37709;53.480;9.688;2023-08-08T02:31:27;11.20;99.90
2407;DHT22;37709;53.480;9.688;2023-08-08T02:33:55;11.10;99.90
2407;DHT22;37709;53.480;9.688;2023-08-08T02:36:22;11.10;99.90
2407;DHT22;37709;53.480;9.688;2023-08-08T02:38:49;11.00;99.90
2407;DHT22;37709;53.480;9.688;2023-08-08T02:41:20;11.00;99.90
2407;DHT22;37709;53.480;9.688;2023-08-08T02:43:48;10.90;99.90
2407;DHT22;37709;53.480;9.688;2023-08-08T02:46:16;10.90;99.90
2407;DHT22;37709;53.480;9.688;2023-08-08T02:48:44;10.90;99.90
2407;DHT22;37709;53.480;9.688;2023-08-08T02:51:11;10.80;99.90
2407;DHT22;37709;53.480;9.688;2023-08-08T02:53:39;10.90;99.90
2407;DHT22;37709;53.480;9.688;2023-08-08T02:56:06;10.90;99.90
2407;DHT22;37709;53.480;9.688;2023-08-08T02:58:39;10.90;99.90
2407;DHT22;37709;53.480;9.688;2023-08-08T03:01:07;10.90;99.90
2407;DHT22;37709;53.480;9.688;2023-08-08T03:03:36;11.00;99.90
2407;DHT22;37709;53.480;9.688;2023-08-08T03:06:05;11.00;99.90
2407;DHT22;37709;53.480;9.688;2023-08-08T03:08:32;11.00;99.90
2407;DHT22;37709;53.480;9.688;2023-08-08T03:11:00;11.00;99.90
2407;DHT22;37709;53.480;9.688;2023-08-08T03:13:28;11.00;99.90
2407;DHT22;37709;53.480;9.688;2023-08-08T03:15:56;11.10;99.90
2407;DHT22;37709;53.480;9.688;2023-08-08T03:18:25;11.20;99.90
2407;DHT22;37709;53.480;9.688;2023-08-08T03:20:55;11.20;99.90
2407;DHT22;37709;53.480;9.688;2023-08-08T03:23:23;11.30;99.90
2407;DHT22;37709;53.480;9.688;2023-08-08T03:25:52;11.40;99.90
2407;DHT22;37709;53.480;9.688;2023-08-08T03:28:19;11.40;99.90
2407;DHT22;37709;53.480;9.688;2023-08-08T03:30:47;11.50;99.90
2407;DHT22;37709;53.480;9.688;2023-08-08T03:33:14;11.40;99.90
2407;DHT22;37709;53.480;9.688;2023-08-08T03:35:41;11.40;99.90
2407;DHT22;37709;53.480;9.688;2023-08-08T03:38:12;11.40;99.90
2407;DHT22;37709;53.480;9.688;2023-08-08T03:40:39;11.40;99.90
2407;DHT22;37709;53.480;9.688;2023-08-08T03:43:07;11.40;99.90
2407;DHT22;37709;53.480;9.688;2023-08-08T03:45:35;11.50;99.90
2407;DHT22;37709;53.480;9.688;2023-08-08T03:48:02;11.50;99.90
2407;DHT22;37709;53.480;9.688;2023-08-08T03:50:30;11.50;99.90
2407;DHT22;37709;53.480;9.688;2023-08-08T03:52:57;11.50;99.90
2407;DHT22;37709;53.480;9.688;2023-08-08T03:55:25;11.50;99.90
2407;DHT22;37709;53.480;9.688;2023-08-08T03:57:53;11.60;99.90
2407;DHT22;37709;53.480;9.688;2023-08-08T04:00:21;11.60;99.90
2407;DHT22;37709;53.480;9.688;2023-08-08T04:02:49;11.60;99.90
2407;DHT22;37709;53.480;9.688;2023-08-08T04:05:18;11.70;99.90
2407;DHT22;37709;53.480;9.688;2023-08-08T04:07:45;11.70;99.90
2407;DHT22;37709;53.480;9.688;2023-08-08T04:10:12;11.70;99.90
2407;DHT22;37709;53.480;9.688;2023-08-08T04:12:40;11.70;99.90
2407;DHT22;37709;53.480;9.688;2023-08-08T04:15:08;11.70;99.90
2407;DHT22;37709;53.480;9.688;2023-08-08T04:17:36;11.60;99.90
2407;DHT22;37709;53.480;9.688;2023-08-08T04:20:04;11.60;99.90
2407;DHT22;37709;53.480;9.688;2023-08-08T04:22:33;11.70;99.90
2407;DHT22;37709;53.480;9.688;2023-08-08T04:25:00;11.70;99.90
2407;DHT22;37709;53.480;9.688;2023-08-08T04:27:28;11.70;99.90
2407;DHT22;37709;53.480;9.688;2023-08-08T04:29:57;11.70;99.90
2407;DHT22;37709;53.480;9.688;2023-08-08T04:32:24;11.60;99.90
2407;DHT22;37709;53.480;9.688;2023-08-08T04:34:52;11.70;99.90
2407;DHT22;37709;53.480;9.688;2023-08-08T04:37:19;11.70;99.90
2407;DHT22;37709;53.480;9.688;2023-08-08T04:39:46;11.70;99.90
2407;DHT22;37709;53.480;9.688;2023-08-08T04:42:14;11.80;99.90
2407;DHT22;37709;53.480;9.688;2023-08-08T04:44:42;11.80;99.90
2407;DHT22;37709;53.480;9.688;2023-08-08T04:47:09;11.90;99.90
2407;DHT22;37709;53.480;9.688;2023-08-08T04:49:37;12.10;99.90
2407;DHT22;37709;53.480;9.688;2023-08-08T04:52:04;12.30;99.90
2407;DHT22;37709;53.480;9.688;2023-08-08T04:54:33;12.40;99.90
2407;DHT22;37709;53.480;9.688;2023-08-08T04:57:00;12.60;99.90
2407;DHT22;37709;53.480;9.688;2023-08-08T04:59:27;12.70;99.90
2407;DHT22;37709;53.480;9.688;2023-08-08T05:01:55;12.90;99.90
2407;DHT22;37709;53.480;9.688;2023-08-08T05:04:22;13.10;99.90
2407;DHT22;37709;53.480;9.688;2023-08-08T05:06:50;13.40;99.90
2407;DHT22;37709;53.480;9.688;2023-08-08T05:09:18;13.50;99.90
2407;DHT22;37709;53.480;9.688;2023-08-08T05:11:45;13.40;99.90
2407;DHT22;37709;53.480;9.688;2023-08-08T05:14:12;13.40;99.90
2407;DHT22;37709;53.480;9.688;2023-08-08T05:16:39;13.30;99.90
2407;DHT22;37709;53.480;9.688;2023-08-08T05:19:07;13.30;99.90
2407;DHT22;37709;53.480;9.688;2023-08-08T05:21:35;13.60;99.90
2407;DHT22;37709;53.480;9.688;2023-08-08T05:24:02;13.90;99.90
2407;DHT22;37709;53.480;9.688;2023-08-08T05:26:29;14.20;99.90
2407;DHT22;37709;53.480;9.688;2023-08-08T05:28:57;14.30;99.90
2407;DHT22;37709;53.480;9.688;2023-08-08T05:31:25;14.20;99.90
2407;DHT22;37709;53.480;9.688;2023-08-08T05:33:52;14.30;99.90
2407;DHT22;37709;53.480;9.688;2023-08-08T05:36:20;14.40;99.90
2407;DHT22;37709;53.480;9.688;2023-08-08T05:38:48;14.50;99.90
2407;DHT22;37709;53.480;9.688;2023-08-08T05:41:15;14.50;99.90
2407;DHT22;37709;53.480;9.688;2023-08-08T05:43:42;14.50;99.90
2407;DHT22;37709;53.480;9.688;2023-08-08T05:46:10;14.30;99.90
2407;DHT22;37709;53.480;9.688;2023-08-08T05:48:37;14.10;99.90
2407;DHT22;37709;53.480;9.688;2023-08-08T05:51:05;14.10;99.90
2407;DHT22;37709;53.480;9.688;2023-08-08T05:53:33;14.80;99.90
2407;DHT22;37709;53.480;9.688;2023-08-08T05:56:00;15.30;99.90
2407;DHT22;37709;53.480;9.688;2023-08-08T05:58:28;15.40;99.90
2407;DHT22;37709;53.480;9.688;2023-08-08T06:00:55;15.10;99.90
2407;DHT22;37709;53.480;9.688;2023-08-08T06:03:22;14.90;99.90
2407;DHT22;37709;53.480;9.688;2023-08-08T06:05:49;14.70;99.90
2407;DHT22;37709;53.480;9.688;2023-08-08T06:08:17;14.40;99.90
2407;DHT22;37709;53.480;9.688;2023-08-08T06:10:44;14.10;99.90
2407;DHT22;37709;53.480;9.688;2023-08-08T06:13:13;13.90;99.90
2407;DHT22;37709;53.480;9.688;2023-08-08T06:15:40;13.70;99.90
2407;DHT22;37709;53.480;9.688;2023-08-08T06:18:08;13.70;99.90
2407;DHT22;37709;53.480;9.688;2023-08-08T06:20:35;14.00;99.90
2407;DHT22;37709;53.480;9.688;2023-08-08T06:23:03;14.50;99.90
2407;DHT22;37709;53.480;9.688;2023-08-08T06:25:31;15.00;99.90
2407;DHT22;37709;53.480;9.688;2023-08-08T06:27:59;15.00;99.90
2407;DHT22;37709;53.480;9.688;2023-08-08T06:30:26;14.80;99.90
2407;DHT22;37709;53.480;9.688;2023-08-08T06:32:54;14.60;99.90
2407;DHT22;37709;53.480;9.688;2023-08-08T06:35:21;14.70;99.90
2407;DHT22;37709;53.480;9.688;2023-08-08T06:37:48;14.80;99.90
2407;DHT22;37709;53.480;9.688;2023-08-08T06:40:16;15.20;99.90
2407;DHT22;37709;53.480;9.688;2023-08-08T06:43:03;16.00;99.90
2407;DHT22;37709;53.480;9.688;2023-08-08T06:45:49;17.30;99.90
2407;DHT22;37709;53.480;9.688;2023-08-08T06:48:16;19.00;99.90
2407;DHT22;37709;53.480;9.688;2023-08-08T06:50:45;20.40;99.90
2407;DHT22;37709;53.480;9.688;2023-08-08T06:53:12;21.70;99.90
2407;DHT22;37709;53.480;9.688;2023-08-08T06:55:40;22.90;99.90
2407;DHT22;37709;53.480;9.688;2023-08-08T06:58:08;23.60;99.90
2407;DHT22;37709;53.480;9.688;2023-08-08T07:00:35;24.40;99.90
2407;DHT22;37709;53.480;9.688;2023-08-08T07:03:03;24.80;99.90
2407;DHT22;37709;53.480;9.688;2023-08-08T07:05:31;25.40;99.90
2407;DHT22;37709;53.480;9.688;2023-08-08T07:07:58;25.60;99.90
2407;DHT22;37709;53.480;9.688;2023-08-08T07:10:27;24.80;99.90
2407;DHT22;37709;53.480;9.688;2023-08-08T07:12:55;23.20;99.90
2407;DHT22;37709;53.480;9.688;2023-08-08T07:15:22;24.50;99.90
2407;DHT22;37709;53.480;9.688;2023-08-08T07:17:49;25.70;99.90
2407;DHT22;37709;53.480;9.688;2023-08-08T07:20:17;25.10;99.90
2407;DHT22;37709;53.480;9.688;2023-08-08T07:22:46;26.30;99.90
2407;DHT22;37709;53.480;9.688;2023-08-08T07:25:14;27.70;98.60
2407;DHT22;37709;53.480;9.688;2023-08-08T07:27:41;25.30;99.80
2407;DHT22;37709;53.480;9.688;2023-08-08T07:30:10;25.30;99.90
2407;DHT22;37709;53.480;9.688;2023-08-08T07:32:38;27.20;98.70
2407;DHT22;37709;53.480;9.688;2023-08-08T07:35:05;28.00;97.30
2407;DHT22;37709;53.480;9.688;2023-08-08T07:37:35;28.30;96.30
2407;DHT22;37709;53.480;9.688;2023-08-08T07:40:03;27.30;96.70
2407;DHT22;37709;53.480;9.688;2023-08-08T07:42:35;24.40;99.10
2407;DHT22;37709;53.480;9.688;2023-08-08T07:45:02;22.60;99.90
2407;DHT22;37709;53.480;9.688;2023-08-08T07:47:30;21.80;99.90
2407;DHT22;37709;53.480;9.688;2023-08-08T07:49:57;21.20;99.90
2407;DHT22;37709;53.480;9.688;2023-08-08T07:52:24;20.80;99.90
2407;DHT22;37709;53.480;9.688;2023-08-08T07:54:52;20.50;99.90
2407;DHT22;37709;53.480;9.688;2023-08-08T07:57:20;20.00;99.90
2407;DHT22;37709;53.480;9.688;2023-08-08T07:59:47;18.90;99.90
2407;DHT22;37709;53.480;9.688;2023-08-08T08:02:14;18.50;99.90
2407;DHT22;37709;53.480;9.688;2023-08-08T08:04:42;18.20;99.90
2407;DHT22;37709;53.480;9.688;2023-08-08T08:07:10;18.00;99.90
2407;DHT22;37709;53.480;9.688;2023-08-08T08:09:37;17.80;99.90
2407;DHT22;37709;53.480;9.688;2023-08-08T08:12:04;17.80;99.90
2407;DHT22;37709;53.480;9.688;2023-08-08T08:14:32;17.70;99.90
2407;DHT22;37709;53.480;9.688;2023-08-08T08:17:00;17.60;99.90
2407;DHT22;37709;53.480;9.688;2023-08-08T08:19:27;17.50;99.90
2407;DHT22;37709;53.480;9.688;2023-08-08T08:21:56;17.60;99.90
2407;DHT22;37709;53.480;9.688;2023-08-08T08:24:23;17.50;99.90
2407;DHT22;37709;53.480;9.688;2023-08-08T08:26:50;17.70;99.90
2407;DHT22;37709;53.480;9.688;2023-08-08T08:29:17;18.10;99.90
2407;DHT22;37709;53.480;9.688;2023-08-08T08:31:45;18.40;99.90
2407;DHT22;37709;53.480;9.688;2023-08-08T08:34:13;18.90;99.90
2407;DHT22;37709;53.480;9.688;2023-08-08T08:36:41;19.10;99.90
2407;DHT22;37709;53.480;9.688;2023-08-08T08:39:09;19.30;99.90
2407;DHT22;37709;53.480;9.688;2023-08-08T08:41:36;19.70;99.90
2407;DHT22;37709;53.480;9.688;2023-08-08T08:44:05;19.90;99.90
2407;DHT22;37709;53.480;9.688;2023-08-08T08:46:35;19.90;99.90
2407;DHT22;37709;53.480;9.688;2023-08-08T08:49:05;19.90;99.90
2407;DHT22;37709;53.480;9.688;2023-08-08T08:51:36;20.00;99.90
2407;DHT22;37709;53.480;9.688;2023-08-08T08:54:04;20.30;99.90
2407;DHT22;37709;53.480;9.688;2023-08-08T08:56:31;20.90;99.90
2407;DHT22;37709;53.480;9.688;2023-08-08T08:59:00;21.70;99.90
2407;DHT22;37709;53.480;9.688;2023-08-08T09:01:28;21.60;99.90
2407;DHT22;37709;53.480;9.688;2023-08-08T09:03:57;21.30;99.90
2407;DHT22;37709;53.480;9.688;2023-08-08T09:06:26;21.30;99.90
2407;DHT22;37709;53.480;9.688;2023-08-08T09:08:55;21.20;99.90
2407;DHT22;37709;53.480;9.688;2023-08-08T09:11:37;20.80;99.90
2407;DHT22;37709;53.480;9.688;2023-08-08T09:14:19;20.20;99.90
2407;DHT22;37709;53.480;9.688;2023-08-08T09:16:47;20.00;99.90
2407;DHT22;37709;53.480;9.688;2023-08-08T09:19:16;19.70;99.90
2407;DHT22;37709;53.480;9.688;2023-08-08T09:21:46;19.40;99.90
2407;DHT22;37709;53.480;9.688;2023-08-08T09:24:14;19.20;99.90
2407;DHT22;37709;53.480;9.688;2023-08-08T09:26:42;19.40;99.90
2407;DHT22;37709;53.480;9.688;2023-08-08T09:29:12;19.80;99.90
2407;DHT22;37709;53.480;9.688;2023-08-08T09:31:40;19.80;99.90
2407;DHT22;37709;53.480;9.688;2023-08-08T09:34:08;19.40;99.90
2407;DHT22;37709;53.480;9.688;2023-08-08T09:36:36;18.80;99.90
2407;DHT22;37709;53.480;9.688;2023-08-08T09:39:04;18.30;99.90
2407;DHT22;37709;53.480;9.688;2023-08-08T09:41:32;17.70;99.90
2407;DHT22;37709;53.480;9.688;2023-08-08T09:44:00;17.10;99.90
2407;DHT22;37709;53.480;9.688;2023-08-08T09:46:29;16.60;99.90
2407;DHT22;37709;53.480;9.688;2023-08-08T09:48:58;16.60;99.90
2407;DHT22;37709;53.480;9.688;2023-08-08T09:51:25;16.70;99.90
2407;DHT22;37709;53.480;9.688;2023-08-08T09:53:55;16.60;99.90
2407;DHT22;37709;53.480;9.688;2023-08-08T09:56:24;16.20;99.90
2407;DHT22;37709;53.480;9.688;2023-08-08T09:58:53;16.10;99.90
2407;DHT22;37709;53.480;9.688;2023-08-08T10:01:21;15.90;99.90
2407;DHT22;37709;53.480;9.688;2023-08-08T10:03:51;15.80;99.90
2407;DHT22;37709;53.480;9.688;2023-08-08T10:06:19;16.00;99.90
2407;DHT22;37709;53.480;9.688;2023-08-08T10:08:47;16.30;99.90
2407;DHT22;37709;53.480;9.688;2023-08-08T10:11:15;16.50;99.90
2407;DHT22;37709;53.480;9.688;2023-08-08T10:13:50;16.70;99.90
2407;DHT22;37709;53.480;9.688;2023-08-08T10:16:18;16.90;99.90
2407;DHT22;37709;53.480;9.688;2023-08-08T10:18:55;17.10;99.90
2407;DHT22;37709;53.480;9.688;2023-08-08T10:21:24;17.70;99.90
2407;DHT22;37709;53.480;9.688;2023-08-08T10:24:06;18.30;99.90
2407;DHT22;37709;53.480;9.688;2023-08-08T10:26:58;22.60;99.90
2407;DHT22;37709;53.480;9.688;2023-08-08T10:29:29;28.90;99.90
2407;DHT22;37709;53.480;9.688;2023-08-08T10:32:02;31.20;96.10
2407;DHT22;37709;53.480;9.688;2023-08-08T10:37:10;27.70;95.20
2407;DHT22;37709;53.480;9.688;2023-08-08T10:39:57;24.70;97.00
2407;DHT22;37709;53.480;9.688;2023-08-08T10:42:27;22.90;99.90
2407;DHT22;37709;53.480;9.688;2023-08-08T10:44:56;22.20;99.90
2407;DHT22;37709;53.480;9.688;2023-08-08T10:47:33;21.90;99.90
2407;DHT22;37709;53.480;9.688;2023-08-08T10:50:15;21.20;99.90
2407;DHT22;37709;53.480;9.688;2023-08-08T11:00:27;17.90;99.90
2407;DHT22;37709;53.480;9.688;2023-08-08T11:02:57;16.90;99.90
2407;DHT22;37709;53.480;9.688;2023-08-08T11:05:28;16.00;99.90
2407;DHT22;37709;53.480;9.688;2023-08-08T11:07:55;15.50;99.90
2407;DHT22;37709;53.480;9.688;2023-08-08T11:10:23;15.20;99.90
2407;DHT22;37709;53.480;9.688;2023-08-08T11:12:55;14.80;99.90
2407;DHT22;37709;53.480;9.688;2023-08-08T11:15:23;14.30;99.90
2407;DHT22;37709;53.480;9.688;2023-08-08T11:17:51;13.90;99.90
2407;DHT22;37709;53.480;9.688;2023-08-08T11:20:21;13.70;99.90
2407;DHT22;37709;53.480;9.688;2023-08-08T11:22:56;13.30;99.90
2407;DHT22;37709;53.480;9.688;2023-08-08T11:25:28;13.20;99.90
2407;DHT22;37709;53.480;9.688;2023-08-08T11:27:57;13.20;99.90
2407;DHT22;37709;53.480;9.688;2023-08-08T11:30:33;13.20;99.90
2407;DHT22;37709;53.480;9.688;2023-08-08T11:33:02;13.10;99.90
2407;DHT22;37709;53.480;9.688;2023-08-08T11:35:34;12.90;99.90
2407;DHT22;37709;53.480;9.688;2023-08-08T11:38:02;13.00;99.90
2407;DHT22;37709;53.480;9.688;2023-08-08T11:40:31;13.10;99.90
2407;DHT22;37709;53.480;9.688;2023-08-08T11:42:59;14.20;99.90
2407;DHT22;37709;53.480;9.688;2023-08-08T11:45:27;16.10;99.90
2407;DHT22;37709;53.480;9.688;2023-08-08T11:47:56;22.60;99.90
2407;DHT22;37709;53.480;9.688;2023-08-08T11:50:25;24.00;99.90
2407;DHT22;37709;53.480;9.688;2023-08-08T11:52:55;26.00;99.90
2407;DHT22;37709;53.480;9.688;2023-08-08T11:55:28;23.30;99.90
2407;DHT22;37709;53.480;9.688;2023-08-08T11:57:56;21.10;99.90
2407;DHT22;37709;53.480;9.688;2023-08-08T12:00:27;19.10;99.90
2407;DHT22;37709;53.480;9.688;2023-08-08T12:02:58;17.50;99.90
2407;DHT22;37709;53.480;9.688;2023-08-08T12:05:28;16.80;99.90
2407;DHT22;37709;53.480;9.688;2023-08-08T12:07:58;16.50;99.90
2407;DHT22;37709;53.480;9.688;2023-08-08T12:10:25;16.70;99.90
2407;DHT22;37709;53.480;9.688;2023-08-08T12:12:55;17.00;99.90
2407;DHT22;37709;53.480;9.688;2023-08-08T12:15:24;19.40;99.90
2407;DHT22;37709;53.480;9.688;2023-08-08T12:17:54;20.90;99.90
2407;DHT22;37709;53.480;9.688;2023-08-08T12:20:22;25.00;99.90
2407;DHT22;37709;53.480;9.688;2023-08-08T12:22:49;27.20;99.90
2407;DHT22;37709;53.480;9.688;2023-08-08T12:25:17;28.50;99.90
2407;DHT22;37709;53.480;9.688;2023-08-08T12:27:44;29.70;99.90
2407;DHT22;37709;53.480;9.688;2023-08-08T12:30:12;30.80;99.90
2407;DHT22;37709;53.480;9.688;2023-08-08T12:32:39;32.10;99.90
2407;DHT22;37709;53.480;9.688;2023-08-08T12:35:07;32.50;99.90
2407;DHT22;37709;53.480;9.688;2023-08-08T12:37:34;32.60;99.90
2407;DHT22;37709;53.480;9.688;2023-08-08T12:40:02;33.10;99.90
2407;DHT22;37709;53.480;9.688;2023-08-08T12:42:32;34.00;99.90
2407;DHT22;37709;53.480;9.688;2023-08-08T12:44:59;34.10;99.90
2407;DHT22;37709;53.480;9.688;2023-08-08T12:47:27;34.30;99.90
2407;DHT22;37709;53.480;9.688;2023-08-08T12:49:56;34.80;98.30
2407;DHT22;37709;53.480;9.688;2023-08-08T12:52:25;35.50;96.60
2407;DHT22;37709;53.480;9.688;2023-08-08T12:54:53;34.70;96.90
2407;DHT22;37709;53.480;9.688;2023-08-08T12:57:20;31.20;96.20
2407;DHT22;37709;53.480;9.688;2023-08-08T12:59:47;28.60;99.20
2407;DHT22;37709;53.480;9.688;2023-08-08T13:02:15;26.90;99.90
2407;DHT22;37709;53.480;9.688;2023-08-08T13:04:42;24.90;99.90
2407;DHT22;37709;53.480;9.688;2023-08-08T13:07:09;23.10;99.90
2407;DHT22;37709;53.480;9.688;2023-08-08T13:09:37;21.90;99.90
2407;DHT22;37709;53.480;9.688;2023-08-08T13:12:05;21.70;99.90
2407;DHT22;37709;53.480;9.688;2023-08-08T13:14:32;21.90;99.90
2407;DHT22;37709;53.480;9.688;2023-08-08T13:17:00;25.80;99.90
2407;DHT22;37709;53.480;9.688;2023-08-08T13:19:28;29.10;98.40
2407;DHT22;37709;53.480;9.688;2023-08-08T13:21:56;30.50;97.00
2407;DHT22;37709;53.480;9.688;2023-08-08T13:24:23;31.70;94.80
2407;DHT22;37709;53.480;9.688;2023-08-08T13:26:51;32.90;94.60
2407;DHT22;37709;53.480;9.688;2023-08-08T13:29:18;34.00;91.20
2407;DHT22;37709;53.480;9.688;2023-08-08T13:31:45;34.10;88.60
2407;DHT22;37709;53.480;9.688;2023-08-08T13:34:13;34.50;83.40
2407;DHT22;37709;53.480;9.688;2023-08-08T13:36:40;34.50;83.40
2407;DHT22;37709;53.480;9.688;2023-08-08T13:39:08;34.20;83.60
2407;DHT22;37709;53.480;9.688;2023-08-08T13:41:37;31.70;86.50
2407;DHT22;37709;53.480;9.688;2023-08-08T13:44:04;28.70;90.30
2407;DHT22;37709;53.480;9.688;2023-08-08T13:46:32;25.90;98.40
2407;DHT22;37709;53.480;9.688;2023-08-08T13:49:05;23.90;99.90
2407;DHT22;37709;53.480;9.688;2023-08-08T13:51:33;22.10;99.90
2407;DHT22;37709;53.480;9.688;2023-08-08T13:54:01;20.50;99.90
2407;DHT22;37709;53.480;9.688;2023-08-08T13:56:28;19.10;99.90
2407;DHT22;37709;53.480;9.688;2023-08-08T13:58:56;18.50;99.90
2407;DHT22;37709;53.480;9.688;2023-08-08T14:01:23;17.90;99.90
2407;DHT22;37709;53.480;9.688;2023-08-08T14:03:51;17.40;99.90
2407;DHT22;37709;53.480;9.688;2023-08-08T14:06:19;17.00;99.90
2407;DHT22;37709;53.480;9.688;2023-08-08T14:08:46;16.70;99.90
2407;DHT22;37709;53.480;9.688;2023-08-08T14:11:14;16.80;99.90
2407;DHT22;37709;53.480;9.688;2023-08-08T14:13:41;16.90;99.90
2407;DHT22;37709;53.480;9.688;2023-08-08T14:16:08;16.80;99.90
2407;DHT22;37709;53.480;9.688;2023-08-08T14:18:36;16.40;99.90
2407;DHT22;37709;53.480;9.688;2023-08-08T14:21:03;16.10;99.90
2407;DHT22;37709;53.480;9.688;2023-08-08T14:23:32;16.00;99.90
2407;DHT22;37709;53.480;9.688;2023-08-08T14:26:00;15.90;99.90
2407;DHT22;37709;53.480;9.688;2023-08-08T14:28:27;16.20;99.90
2407;DHT22;37709;53.480;9.688;2023-08-08T14:30:55;18.10;99.90
2407;DHT22;37709;53.480;9.688;2023-08-08T14:33:22;18.70;99.90
2407;DHT22;37709;53.480;9.688;2023-08-08T14:35:50;18.60;99.90
2407;DHT22;37709;53.480;9.688;2023-08-08T14:38:17;18.10;99.90
2407;DHT22;37709;53.480;9.688;2023-08-08T14:40:44;17.80;99.90
2407;DHT22;37709;53.480;9.688;2023-08-08T14:43:12;17.90;99.90
2407;DHT22;37709;53.480;9.688;2023-08-08T14:45:39;18.10;99.90
2407;DHT22;37709;53.480;9.688;2023-08-08T14:48:07;18.80;99.90
2407;DHT22;37709;53.480;9.688;2023-08-08T14:50:35;19.90;99.90
2407;DHT22;37709;53.480;9.688;2023-08-08T14:53:03;19.40;99.90
2407;DHT22;37709;53.480;9.688;2023-08-08T14:55:31;21.60;99.90
2407;DHT22;37709;53.480;9.688;2023-08-08T14:57:58;24.10;99.90
2407;DHT22;37709;53.480;9.688;2023-08-08T15:00:25;25.20;99.90
2407;DHT22;37709;53.480;9.688;2023-08-08T15:02:53;24.50;99.90
2407;DHT22;37709;53.480;9.688;2023-08-08T15:05:20;22.80;99.90
2407;DHT22;37709;53.480;9.688;2023-08-08T15:07:48;21.80;99.90
2407;DHT22;37709;53.480;9.688;2023-08-08T15:10:15;21.80;99.90
2407;DHT22;37709;53.480;9.688;2023-08-08T15:12:43;24.40;99.90
2407;DHT22;37709;53.480;9.688;2023-08-08T15:15:10;26.60;99.90
2407;DHT22;37709;53.480;9.688;2023-08-08T15:17:39;27.10;99.90
2407;DHT22;37709;53.480;9.688;2023-08-08T15:20:07;25.00;99.90
2407;DHT22;37709;53.480;9.688;2023-08-08T15:22:34;22.90;99.90
2407;DHT22;37709;53.480;9.688;2023-08-08T15:25:07;21.50;99.90
2407;DHT22;37709;53.480;9.688;2023-08-08T15:27:35;20.90;99.90
2407;DHT22;37709;53.480;9.688;2023-08-08T15:30:04;20.10;99.90
2407;DHT22;37709;53.480;9.688;2023-08-08T15:32:31;19.20;99.90
2407;DHT22;37709;53.480;9.688;2023-08-08T15:34:59;18.60;99.90
2407;DHT22;37709;53.480;9.688;2023-08-08T15:37:26;19.20;99.90
2407;DHT22;37709;53.480;9.688;2023-08-08T15:39:53;19.00;99.90
2407;DHT22;37709;53.480;9.688;2023-08-08T15:42:22;18.50;99.90
2407;DHT22;37709;53.480;9.688;2023-08-08T15:44:49;17.70;99.90
2407;DHT22;37709;53.480;9.688;2023-08-08T15:47:17;16.60;99.90
2407;DHT22;37709;53.480;9.688;2023-08-08T15:49:44;15.50;99.90
2407;DHT22;37709;53.480;9.688;2023-08-08T15:52:12;14.80;99.90
2407;DHT22;37709;53.480;9.688;2023-08-08T15:54:40;14.30;99.90
2407;DHT22;37709;53.480;9.688;2023-08-08T15:57:07;13.90;99.90
2407;DHT22;37709;53.480;9.688;2023-08-08T15:59:35;13.70;99.90
2407;DHT22;37709;53.480;9.688;2023-08-08T16:02:05;13.50;99.90